sensor_id;sensor_type;location;lat;lon;timestamp;pressure;altitude;pressure_sealevel;temperature;humidity
43934;BME280;59081;42.706;23.306;2024-02-26T00:00:46;94733.34;;;8.25;100.00
43934;BME280;59081;42.706;23.306;2024-02-26T00:05:49;94602.91;;;7.50;100.00
43934;BME280;59081;42.706;23.306;2024-02-26T00:10:53;94784.16;;;8.62;100.00
43934;BME280;59081;42.706;23.306;2024-02-26T00:15:54;94675.09;;;7.76;100.00
43934;BME280;59081;42.706;23.306;2024-02-26T00:20:55;94728.28;;;8.24;100.00
43934;BME280;59081;42.706;23.306;2024-02-26T00:25:55;94638.25;;;7.77;100.00
43934;BME280;59081;42.706;23.306;2024-02-26T00:30:56;94708.81;;;8.34;100.00
43934;BME280;59081;42.706;23.306;2024-02-26T00:36:02;94629.47;;;7.82;100.00
43934;BME280;59081;42.706;23.306;2024-02-26T00:41:03;94642.50;;;7.94;100.00
43934;BME280;59081;42.706;23.306;2024-02-26T00:46:06;94702.63;;;8.47;100.00
43934;BME280;59081;42.706;23.306;2024-02-26T00:51:09;94687.19;;;8.36;100.00
43934;BME280;59081;42.706;23.306;2024-02-26T00:56:13;94616.69;;;7.92;100.00
43934;BME280;59081;42.706;23.306;2024-02-26T01:01:16;94608.56;;;7.88;100.00
43934;BME280;59081;42.706;23.306;2024-02-26T01:06:17;94691.00;;;8.55;100.00
43934;BME280;59081;42.706;23.306;2024-02-26T01:11:21;94703.69;;;8.49;100.00
43934;BME280;59081;42.706;23.306;2024-02-26T01:16:25;94624.25;;;7.88;100.00
43934;BME280;59081;42.706;23.306;2024-02-26T01:21:31;94680.19;;;8.19;100.00
43934;BME280;59081;42.706;23.306;2024-02-26T01:26:32;94643.63;;;8.10;100.00
43934;BME280;59081;42.706;23.306;2024-02-26T01:31:33;94732.31;;;8.64;100.00
43934;BME280;59081;42.706;23.306;2024-02-26T01:36:34;94629.91;;;8.10;100.00
43934;BME280;59081;42.706;23.306;2024-02-26T01:41:34;94654.59;;;8.38;100.00
43934;BME280;59081;42.706;23.306;2024-02-26T01:46:38;94680.25;;;8.61;100.00
43934;BME280;59081;42.706;23.306;2024-02-26T01:51:44;94612.81;;;8.18;100.00
43934;BME280;59081;42.706;23.306;2024-02-26T01:56:45;94729.63;;;8.90;100.00
43934;BME280;59081;42.706;23.306;2024-02-26T02:01:48;94599.53;;;8.17;100.00
43934;BME280;59081;42.706;23.306;2024-02-26T02:06:53;94582.50;;;7.96;100.00
43934;BME280;59081;42.706;23.306;2024-02-26T02:11:55;94716.84;;;8.70;100.00
43934;BME280;59081;42.706;23.306;2024-02-26T02:16:59;94574.53;;;7.86;100.00
43934;BME280;59081;42.706;23.306;2024-02-26T02:21:59;94700.72;;;8.85;100.00
43934;BME280;59081;42.706;23.306;2024-02-26T02:27:00;94544.88;;;7.39;100.00
43934;BME280;59081;42.706;23.306;2024-02-26T02:32:01;94565.19;;;7.25;100.00
43934;BME280;59081;42.706;23.306;2024-02-26T02:37:03;94698.38;;;8.29;100.00
43934;BME280;59081;42.706;23.306;2024-02-26T02:42:04;94707.53;;;8.39;100.00
43934;BME280;59081;42.706;23.306;2024-02-26T02:47:05;94611.22;;;7.92;100.00
43934;BME280;59081;42.706;23.306;2024-02-26T02:52:06;94682.47;;;8.37;100.00
43934;BME280;59081;42.706;23.306;2024-02-26T02:57:12;94613.66;;;8.02;100.00
43934;BME280;59081;42.706;23.306;2024-02-26T03:02:16;94605.94;;;7.97;100.00
43934;BME280;59081;42.706;23.306;2024-02-26T03:07:16;94723.13;;;8.84;100.00
43934;BME280;59081;42.706;23.306;2024-02-26T03:12:17;94719.50;;;8.87;100.00
43934;BME280;59081;42.706;23.306;2024-02-26T03:17:20;94576.94;;;7.84;100.00
43934;BME280;59081;42.706;23.306;2024-02-26T03:22:21;94586.38;;;8.12;100.00
43934;BME280;59081;42.706;23.306;2024-02-26T03:27:22;94564.28;;;8.02;100.00
43934;BME280;59081;42.706;23.306;2024-02-26T03:32:31;94705.81;;;8.99;100.00
43934;BME280;59081;42.706;23.306;2024-02-26T03:37:31;94700.19;;;9.03;100.00
43934;BME280;59081;42.706;23.306;2024-02-26T03:42:37;94703.16;;;8.96;100.00
43934;BME280;59081;42.706;23.306;2024-02-26T03:47:38;94668.75;;;8.79;100.00
43934;BME280;59081;42.706;23.306;2024-02-26T03:52:42;94625.00;;;8.46;100.00
43934;BME280;59081;42.706;23.306;2024-02-26T03:57:43;94566.84;;;8.22;100.00
43934;BME280;59081;42.706;23.306;2024-02-26T04:02:43;94688.84;;;9.01;100.00
43934;BME280;59081;42.706;23.306;2024-02-26T04:07:50;94520.91;;;7.85;100.00
43934;BME280;59081;42.706;23.306;2024-02-26T04:12:53;94691.28;;;8.99;100.00
43934;BME280;59081;42.706;23.306;2024-02-26T04:17:54;94651.16;;;8.63;100.00
43934;BME280;59081;42.706;23.306;2024-02-26T04:22:55;94607.44;;;8.44;100.00
43934;BME280;59081;42.706;23.306;2024-02-26T04:27:59;94607.03;;;8.29;100.00
43934;BME280;59081;42.706;23.306;2024-02-26T04:32:59;94606.94;;;8.32;100.00
43934;BME280;59081;42.706;23.306;2024-02-26T04:38:00;94689.19;;;8.78;100.00
43934;BME280;59081;42.706;23.306;2024-02-26T04:43:03;94543.91;;;7.75;100.00
43934;BME280;59081;42.706;23.306;2024-02-26T04:48:07;94612.81;;;8.18;100.00
43934;BME280;59081;42.706;23.306;2024-02-26T04:53:08;94689.94;;;8.65;100.00
43934;BME280;59081;42.706;23.306;2024-02-26T04:58:08;94683.09;;;8.57;100.00
43934;BME280;59081;42.706;23.306;2024-02-26T05:03:15;94547.44;;;7.75;100.00
43934;BME280;59081;42.706;23.306;2024-02-26T05:08:16;94603.09;;;8.01;100.00
43934;BME280;59081;42.706;23.306;2024-02-26T05:13:24;94668.66;;;8.41;100.00
43934;BME280;59081;42.706;23.306;2024-02-26T05:18:27;94678.19;;;8.36;100.00
43934;BME280;59081;42.706;23.306;2024-02-26T05:23:28;94676.06;;;8.27;100.00
43934;BME280;59081;42.706;23.306;2024-02-26T05:28:29;94614.56;;;7.83;100.00
43934;BME280;59081;42.706;23.306;2024-02-26T05:33:30;94606.44;;;7.34;100.00
43934;BME280;59081;42.706;23.306;2024-02-26T05:38:31;94654.38;;;7.59;100.00
43934;BME280;59081;42.706;23.306;2024-02-26T05:43:34;94738.91;;;8.38;100.00
43934;BME280;59081;42.706;23.306;2024-02-26T05:48:35;94750.91;;;8.44;100.00
43934;BME280;59081;42.706;23.306;2024-02-26T05:53:36;94560.19;;;7.37;100.00
43934;BME280;59081;42.706;23.306;2024-02-26T05:58:37;94614.84;;;7.44;100.00
43934;BME280;59081;42.706;23.306;2024-02-26T06:03:40;94663.31;;;7.92;100.00
43934;BME280;59081;42.706;23.306;2024-02-26T06:08:41;94704.88;;;8.35;100.00
43934;BME280;59081;42.706;23.306;2024-02-26T06:13:44;94637.19;;;7.87;100.00
43934;BME280;59081;42.706;23.306;2024-02-26T06:18:48;94769.25;;;8.76;100.00
43934;BME280;59081;42.706;23.306;2024-02-26T06:23:48;94663.75;;;8.19;100.00
43934;BME280;59081;42.706;23.306;2024-02-26T06:28:53;94698.88;;;8.53;100.00
43934;BME280;59081;42.706;23.306;2024-02-26T06:33:55;94677.47;;;9.75;100.00
43934;BME280;59081;42.706;23.306;2024-02-26T06:38:56;94763.13;;;10.24;100.00
43934;BME280;59081;42.706;23.306;2024-02-26T06:43:57;94728.75;;;9.56;100.00
43934;BME280;59081;42.706;23.306;2024-02-26T06:48:57;94756.31;;;9.02;100.00
43934;BME280;59081;42.706;23.306;2024-02-26T06:54:03;94766.03;;;9.19;100.00
43934;BME280;59081;42.706;23.306;2024-02-26T06:59:06;94639.78;;;8.07;100.00
43934;BME280;59081;42.706;23.306;2024-02-26T07:04:09;94694.16;;;8.54;100.00
43934;BME280;59081;42.706;23.306;2024-02-26T07:09:11;94719.56;;;9.50;100.00
43934;BME280;59081;42.706;23.306;2024-02-26T07:14:19;94608.84;;;8.07;100.00
43934;BME280;59081;42.706;23.306;2024-02-26T07:19:20;94700.34;;;8.70;100.00
43934;BME280;59081;42.706;23.306;2024-02-26T07:24:21;94773.63;;;9.15;100.00
43934;BME280;59081;42.706;23.306;2024-02-26T07:29:22;94707.44;;;8.97;100.00
43934;BME280;59081;42.706;23.306;2024-02-26T07:34:26;94593.19;;;8.20;100.00
43934;BME280;59081;42.706;23.306;2024-02-26T07:39:32;94709.84;;;8.82;100.00
43934;BME280;59081;42.706;23.306;2024-02-26T07:44:36;94793.53;;;9.32;100.00
43934;BME280;59081;42.706;23.306;2024-02-26T07:49:36;94767.28;;;9.31;100.00
43934;BME280;59081;42.706;23.306;2024-02-26T07:54:37;94689.84;;;8.82;100.00
43934;BME280;59081;42.706;23.306;2024-02-26T07:59:41;94678.09;;;8.81;100.00
43934;BME280;59081;42.706;23.306;2024-02-26T08:04:44;94657.97;;;8.71;100.00
43934;BME280;59081;42.706;23.306;2024-02-26T08:09:45;94640.91;;;8.51;100.00
43934;BME280;59081;42.706;23.306;2024-02-26T08:14:46;94673.03;;;8.80;100.00
43934;BME280;59081;42.706;23.306;2024-02-26T08:19:47;94709.09;;;9.07;100.00
43934;BME280;59081;42.706;23.306;2024-02-26T08:24:54;94776.94;;;9.86;100.00
43934;BME280;59081;42.706;23.306;2024-02-26T08:29:59;94776.34;;;10.17;100.00
43934;BME280;59081;42.706;23.306;2024-02-26T08:35:08;94773.25;;;10.27;98.27
43934;BME280;59081;42.706;23.306;2024-02-26T08:40:20;94631.91;;;9.39;98.63
43934;BME280;59081;42.706;23.306;2024-02-26T08:45:24;94595.06;;;9.37;98.07
43934;BME280;59081;42.706;23.306;2024-02-26T08:50:29;94649.03;;;9.91;96.55
43934;BME280;59081;42.706;23.306;2024-02-26T08:55:30;94733.25;;;10.57;96.75
43934;BME280;59081;42.706;23.306;2024-02-26T09:00:31;94730.03;;;10.71;94.87
43934;BME280;59081;42.706;23.306;2024-02-26T09:05:34;94721.59;;;10.97;94.14
43934;BME280;59081;42.706;23.306;2024-02-26T09:10:35;94621.53;;;10.47;93.30
43934;BME280;59081;42.706;23.306;2024-02-26T09:15:36;94627.66;;;10.51;93.64
43934;BME280;59081;42.706;23.306;2024-02-26T09:20:39;94586.75;;;10.40;93.19
43934;BME280;59081;42.706;23.306;2024-02-26T09:25:46;94640.94;;;10.74;93.24
43934;BME280;59081;42.706;23.306;2024-02-26T09:30:46;94742.16;;;11.67;91.94
43934;BME280;59081;42.706;23.306;2024-02-26T09:35:50;94669.97;;;11.19;91.89
43934;BME280;59081;42.706;23.306;2024-02-26T09:40:51;94708.06;;;11.42;89.77
43934;BME280;59081;42.706;23.306;2024-02-26T09:45:55;94678.50;;;11.52;87.84
43934;BME280;59081;42.706;23.306;2024-02-26T09:51:01;94607.78;;;11.27;85.15
43934;BME280;59081;42.706;23.306;2024-02-26T09:56:07;94602.00;;;11.25;84.42
43934;BME280;59081;42.706;23.306;2024-02-26T10:01:11;94628.72;;;11.56;82.96
43934;BME280;59081;42.706;23.306;2024-02-26T10:06:19;94639.97;;;11.89;80.93
43934;BME280;59081;42.706;23.306;2024-02-26T10:11:24;94595.31;;;11.63;79.09
43934;BME280;59081;42.706;23.306;2024-02-26T10:16:25;94563.91;;;11.69;79.13
43934;BME280;59081;42.706;23.306;2024-02-26T10:21:29;94557.34;;;11.85;76.33
43934;BME280;59081;42.706;23.306;2024-02-26T10:26:33;94617.59;;;12.23;75.91
43934;BME280;59081;42.706;23.306;2024-02-26T10:31:36;94569.94;;;11.77;76.95
43934;BME280;59081;42.706;23.306;2024-02-26T10:36:37;94525.56;;;11.62;76.80
43934;BME280;59081;42.706;23.306;2024-02-26T10:41:44;94587.38;;;12.19;75.39
43934;BME280;59081;42.706;23.306;2024-02-26T10:46:48;94539.25;;;11.84;75.66
43934;BME280;59081;42.706;23.306;2024-02-26T10:51:56;94553.34;;;12.04;73.35
43934;BME280;59081;42.706;23.306;2024-02-26T10:57:00;94589.66;;;12.39;73.06
43934;BME280;59081;42.706;23.306;2024-02-26T11:02:02;94615.72;;;12.57;74.13
43934;BME280;59081;42.706;23.306;2024-02-26T11:07:03;94637.31;;;12.67;74.07
43934;BME280;59081;42.706;23.306;2024-02-26T11:12:08;94619.25;;;12.57;73.52
43934;BME280;59081;42.706;23.306;2024-02-26T11:17:13;94559.03;;;12.01;72.82
43934;BME280;59081;42.706;23.306;2024-02-26T11:22:16;94556.16;;;12.55;71.96
43934;BME280;59081;42.706;23.306;2024-02-26T11:27:18;94542.75;;;12.21;70.30
43934;BME280;59081;42.706;23.306;2024-02-26T11:32:19;94667.00;;;13.27;70.92
43934;BME280;59081;42.706;23.306;2024-02-26T11:37:20;94564.94;;;12.45;72.19
43934;BME280;59081;42.706;23.306;2024-02-26T11:42:24;94507.88;;;12.42;70.17
43934;BME280;59081;42.706;23.306;2024-02-26T11:47:29;94522.59;;;12.39;70.95
43934;BME280;59081;42.706;23.306;2024-02-26T11:52:30;94618.09;;;12.91;71.26
43934;BME280;59081;42.706;23.306;2024-02-26T11:57:40;94641.19;;;13.21;70.29
43934;BME280;59081;42.706;23.306;2024-02-26T12:02:50;94653.63;;;13.26;69.77
43934;BME280;59081;42.706;23.306;2024-02-26T12:08:06;94501.97;;;12.58;67.91
43934;BME280;59081;42.706;23.306;2024-02-26T12:13:12;94610.34;;;13.46;67.29
43934;BME280;59081;42.706;23.306;2024-02-26T12:18:17;94664.16;;;13.69;66.88
43934;BME280;59081;42.706;23.306;2024-02-26T12:23:22;94534.47;;;12.72;67.27
43934;BME280;59081;42.706;23.306;2024-02-26T12:28:22;94659.75;;;13.63;65.49
43934;BME280;59081;42.706;23.306;2024-02-26T12:33:27;94491.81;;;12.64;64.85
43934;BME280;59081;42.706;23.306;2024-02-26T12:38:35;94676.84;;;14.09;63.44
43934;BME280;59081;42.706;23.306;2024-02-26T12:43:37;94506.06;;;13.05;62.20
43934;BME280;59081;42.706;23.306;2024-02-26T12:48:38;94593.63;;;13.88;61.25
43934;BME280;59081;42.706;23.306;2024-02-26T12:53:43;94509.41;;;13.80;58.77
43934;BME280;59081;42.706;23.306;2024-02-26T12:58:45;94644.25;;;14.66;58.59
43934;BME280;59081;42.706;23.306;2024-02-26T13:03:46;94547.63;;;13.91;57.35
43934;BME280;59081;42.706;23.306;2024-02-26T13:08:47;94553.28;;;14.11;56.75
43934;BME280;59081;42.706;23.306;2024-02-26T13:13:51;94569.31;;;14.46;56.81
43934;BME280;59081;42.706;23.306;2024-02-26T13:19:07;94586.88;;;14.57;56.70
43934;BME280;59081;42.706;23.306;2024-02-26T13:24:12;94595.34;;;14.24;57.59
43934;BME280;59081;42.706;23.306;2024-02-26T13:29:19;94517.81;;;13.86;57.10
43934;BME280;59081;42.706;23.306;2024-02-26T13:34:28;94575.47;;;13.87;57.43
43934;BME280;59081;42.706;23.306;2024-02-26T13:39:30;94524.22;;;13.53;57.85
43934;BME280;59081;42.706;23.306;2024-02-26T13:44:42;94573.56;;;13.79;57.76
43934;BME280;59081;42.706;23.306;2024-02-26T13:49:43;94635.66;;;14.25;56.82
43934;BME280;59081;42.706;23.306;2024-02-26T13:54:43;94564.06;;;13.71;57.62
43934;BME280;59081;42.706;23.306;2024-02-26T13:59:47;94518.81;;;13.59;56.31
43934;BME280;59081;42.706;23.306;2024-02-26T14:04:48;94554.59;;;13.63;56.70
43934;BME280;59081;42.706;23.306;2024-02-26T14:09:51;94613.28;;;14.14;56.24
43934;BME280;59081;42.706;23.306;2024-02-26T14:14:53;94541.06;;;13.41;55.49
43934;BME280;59081;42.706;23.306;2024-02-26T14:19:59;94519.34;;;13.24;55.76
43934;BME280;59081;42.706;23.306;2024-02-26T14:24:59;94566.47;;;13.78;55.04
43934;BME280;59081;42.706;23.306;2024-02-26T14:30:00;94670.94;;;14.40;54.64
43934;BME280;59081;42.706;23.306;2024-02-26T14:35:01;94639.78;;;14.06;54.75
43934;BME280;59081;42.706;23.306;2024-02-26T14:40:03;94668.53;;;14.33;54.68
43934;BME280;59081;42.706;23.306;2024-02-26T14:45:10;94530.47;;;13.39;54.31
43934;BME280;59081;42.706;23.306;2024-02-26T14:50:11;94533.94;;;13.25;53.95
43934;BME280;59081;42.706;23.306;2024-02-26T14:55:14;94557.63;;;13.50;53.40
43934;BME280;59081;42.706;23.306;2024-02-26T15:00:15;94544.75;;;13.05;54.00
43934;BME280;59081;42.706;23.306;2024-02-26T15:05:16;94702.16;;;14.02;53.44
43934;BME280;59081;42.706;23.306;2024-02-26T15:10:19;94529.19;;;12.83;53.53
43934;BME280;59081;42.706;23.306;2024-02-26T15:15:23;94581.59;;;13.11;52.11
43934;BME280;59081;42.706;23.306;2024-02-26T15:20:26;94663.69;;;13.71;52.31
43934;BME280;59081;42.706;23.306;2024-02-26T15:25:27;94709.31;;;13.84;52.05
43934;BME280;59081;42.706;23.306;2024-02-26T15:30:34;94640.56;;;13.26;52.72
43934;BME280;59081;42.706;23.306;2024-02-26T15:35:37;94644.72;;;13.31;52.45
43934;BME280;59081;42.706;23.306;2024-02-26T15:40:39;94541.44;;;12.59;53.01
43934;BME280;59081;42.706;23.306;2024-02-26T15:45:40;94696.72;;;13.50;52.54
43934;BME280;59081;42.706;23.306;2024-02-26T15:50:40;94726.84;;;13.48;52.70
43934;BME280;59081;42.706;23.306;2024-02-26T15:55:44;94667.38;;;12.93;53.14
43934;BME280;59081;42.706;23.306;2024-02-26T16:00:48;94608.78;;;12.70;52.59
43934;BME280;59081;42.706;23.306;2024-02-26T16:05:48;94735.16;;;13.48;52.73
43934;BME280;59081;42.706;23.306;2024-02-26T16:10:53;94731.47;;;13.42;53.06
43934;BME280;59081;42.706;23.306;2024-02-26T16:16:03;94748.53;;;13.41;53.26
43934;BME280;59081;42.706;23.306;2024-02-26T16:21:07;94744.91;;;13.16;53.64
43934;BME280;59081;42.706;23.306;2024-02-26T16:26:07;94710.88;;;12.74;54.21
43934;BME280;59081;42.706;23.306;2024-02-26T16:31:10;94762.88;;;13.21;53.68
43934;BME280;59081;42.706;23.306;2024-02-26T16:36:11;94646.41;;;12.13;54.15
43934;BME280;59081;42.706;23.306;2024-02-26T16:41:15;94679.09;;;12.33;54.45
43934;BME280;59081;42.706;23.306;2024-02-26T16:46:20;94712.41;;;12.29;55.51
43934;BME280;59081;42.706;23.306;2024-02-26T16:51:21;94738.81;;;12.39;55.27
43934;BME280;59081;42.706;23.306;2024-02-26T16:56:27;94802.06;;;12.74;54.28
43934;BME280;59081;42.706;23.306;2024-02-26T17:01:28;94793.91;;;12.70;54.30
43934;BME280;59081;42.706;23.306;2024-02-26T17:06:31;94703.00;;;11.90;54.58
43934;BME280;59081;42.706;23.306;2024-02-26T17:11:37;94724.94;;;11.94;55.18
43934;BME280;59081;42.706;23.306;2024-02-26T17:16:41;94628.97;;;11.39;55.19
43934;BME280;59081;42.706;23.306;2024-02-26T17:21:44;94681.41;;;11.48;55.18
43934;BME280;59081;42.706;23.306;2024-02-26T17:26:45;94624.03;;;11.25;54.77
43934;BME280;59081;42.706;23.306;2024-02-26T17:31:52;94770.66;;;12.04;55.53
43934;BME280;59081;42.706;23.306;2024-02-26T17:36:55;94637.66;;;11.20;55.51
43934;BME280;59081;42.706;23.306;2024-02-26T17:41:59;94832.56;;;12.43;56.08
43934;BME280;59081;42.706;23.306;2024-02-26T17:46:59;94831.81;;;12.42;56.25
43934;BME280;59081;42.706;23.306;2024-02-26T17:52:05;94749.47;;;11.92;56.18
43934;BME280;59081;42.706;23.306;2024-02-26T17:57:09;94753.81;;;11.71;56.88
43934;BME280;59081;42.706;23.306;2024-02-26T18:02:30;94814.81;;;12.04;58.47
43934;BME280;59081;42.706;23.306;2024-02-26T18:07:34;94775.56;;;11.69;58.57
43934;BME280;59081;42.706;23.306;2024-02-26T18:12:47;94778.31;;;11.60;59.70
43934;BME280;59081;42.706;23.306;2024-02-26T18:17:51;94851.97;;;11.81;60.38
43934;BME280;59081;42.706;23.306;2024-02-26T18:27:56;94654.63;;;10.34;65.23
43934;BME280;59081;42.706;23.306;2024-02-26T18:32:57;94659.75;;;10.45;61.10
43934;BME280;59081;42.706;23.306;2024-02-26T18:37:58;94859.03;;;11.60;61.53
43934;BME280;59081;42.706;23.306;2024-02-26T18:43:02;94859.53;;;11.59;61.75
43934;BME280;59081;42.706;23.306;2024-02-26T18:48:05;94731.03;;;10.65;62.78
43934;BME280;59081;42.706;23.306;2024-02-26T18:53:07;94652.53;;;10.04;63.61
43934;BME280;59081;42.706;23.306;2024-02-26T18:58:13;94647.28;;;9.97;63.93
43934;BME280;59081;42.706;23.306;2024-02-26T19:03:14;94702.88;;;10.26;63.54
43934;BME280;59081;42.706;23.306;2024-02-26T19:08:27;94678.09;;;9.92;64.28
43934;BME280;59081;42.706;23.306;2024-02-26T19:13:28;94797.59;;;10.63;64.89
43934;BME280;59081;42.706;23.306;2024-02-26T19:18:32;94651.34;;;9.58;65.52
43934;BME280;59081;42.706;23.306;2024-02-26T19:23:32;94630.66;;;9.53;84.05
43934;BME280;59081;42.706;23.306;2024-02-26T19:28:34;94661.31;;;9.77;65.94
43934;BME280;59081;42.706;23.306;2024-02-26T19:33:34;94841.75;;;10.94;65.95
43934;BME280;59081;42.706;23.306;2024-02-26T19:38:35;94740.66;;;10.26;65.35
43934;BME280;59081;42.706;23.306;2024-02-26T19:43:36;94915.03;;;11.26;66.65
43934;BME280;59081;42.706;23.306;2024-02-26T19:48:42;94712.56;;;9.84;67.24
43934;BME280;59081;42.706;23.306;2024-02-26T19:53:44;94727.28;;;9.90;68.02
43934;BME280;59081;42.706;23.306;2024-02-26T19:58:45;94705.53;;;9.70;68.68
43934;BME280;59081;42.706;23.306;2024-02-26T20:03:57;94798.72;;;10.19;69.27
43934;BME280;59081;42.706;23.306;2024-02-26T20:08:58;94929.91;;;11.07;69.72
43934;BME280;59081;42.706;23.306;2024-02-26T20:13:59;94731.19;;;9.41;71.09
43934;BME280;59081;42.706;23.306;2024-02-26T20:18:59;94830.94;;;10.31;70.97
43934;BME280;59081;42.706;23.306;2024-02-26T20:24:03;94712.94;;;9.48;71.22
43934;BME280;59081;42.706;23.306;2024-02-26T20:29:05;94857.47;;;10.25;72.25
43934;BME280;59081;42.706;23.306;2024-02-26T20:34:06;94954.13;;;10.90;71.91
43934;BME280;59081;42.706;23.306;2024-02-26T20:39:09;94755.91;;;9.92;69.95
43934;BME280;59081;42.706;23.306;2024-02-26T20:44:10;94834.31;;;10.48;70.11
43934;BME280;59081;42.706;23.306;2024-02-26T20:49:11;94780.31;;;10.16;69.51
43934;BME280;59081;42.706;23.306;2024-02-26T20:54:12;94865.66;;;10.97;74.22
43934;BME280;59081;42.706;23.306;2024-02-26T20:59:13;94796.25;;;10.33;69.75
43934;BME280;59081;42.706;23.306;2024-02-26T21:04:16;94919.94;;;11.22;69.40
43934;BME280;59081;42.706;23.306;2024-02-26T21:09:17;94967.19;;;10.99;72.36
43934;BME280;59081;42.706;23.306;2024-02-26T21:14:18;94832.16;;;10.30;71.85
43934;BME280;59081;42.706;23.306;2024-02-26T21:19:19;94819.63;;;10.03;73.03
43934;BME280;59081;42.706;23.306;2024-02-26T21:24:20;94972.41;;;10.84;73.86
43934;BME280;59081;42.706;23.306;2024-02-26T21:29:21;94924.88;;;10.20;75.67
43934;BME280;59081;42.706;23.306;2024-02-26T21:34:21;94834.16;;;9.66;75.83
43934;BME280;59081;42.706;23.306;2024-02-26T21:39:24;94694.06;;;8.57;76.68
43934;BME280;59081;42.706;23.306;2024-02-26T21:44:24;94860.84;;;9.53;77.84
43934;BME280;59081;42.706;23.306;2024-02-26T21:49:28;94796.00;;;9.01;78.88
43934;BME280;59081;42.706;23.306;2024-02-26T21:54:32;94735.66;;;8.43;79.20
43934;BME280;59081;42.706;23.306;2024-02-26T21:59:33;94962.09;;;10.25;78.51
43934;BME280;59081;42.706;23.306;2024-02-26T22:04:36;94891.59;;;10.02;76.77
43934;BME280;59081;42.706;23.306;2024-02-26T22:09:36;94801.91;;;9.41;76.06
43934;BME280;59081;42.706;23.306;2024-02-26T22:14:37;94849.53;;;9.51;76.94
43934;BME280;59081;42.706;23.306;2024-02-26T22:19:41;94877.81;;;9.64;78.61
43934;BME280;59081;42.706;23.306;2024-02-26T22:24:47;95018.38;;;10.49;79.13
43934;BME280;59081;42.706;23.306;2024-02-26T22:29:48;94794.34;;;9.03;78.89
43934;BME280;59081;42.706;23.306;2024-02-26T22:34:48;94790.50;;;9.01;78.92
43934;BME280;59081;42.706;23.306;2024-02-26T22:39:52;94925.28;;;9.93;79.22
43934;BME280;59081;42.706;23.306;2024-02-26T22:44:53;94800.97;;;9.19;78.64
43934;BME280;59081;42.706;23.306;2024-02-26T22:49:57;94892.00;;;9.62;79.38
43934;BME280;59081;42.706;23.306;2024-02-26T22:54:57;94836.44;;;9.42;79.03
43934;BME280;59081;42.706;23.306;2024-02-26T22:59:58;94818.69;;;9.18;79.54
43934;BME280;59081;42.706;23.306;2024-02-26T23:05:21;95033.59;;;10.66;79.44
43934;BME280;59081;42.706;23.306;2024-02-26T23:10:30;94803.19;;;9.11;78.99
43934;BME280;59081;42.706;23.306;2024-02-26T23:15:33;94957.66;;;10.02;79.40
43934;BME280;59081;42.706;23.306;2024-02-26T23:20:35;95055.63;;;10.66;79.86
43934;BME280;59081;42.706;23.306;2024-02-26T23:25:35;94939.78;;;9.81;79.82
43934;BME280;59081;42.706;23.306;2024-02-26T23:30:36;94906.38;;;9.54;80.32
43934;BME280;59081;42.706;23.306;2024-02-26T23:35:39;94946.50;;;9.80;80.46
43934;BME280;59081;42.706;23.306;2024-02-26T23:40:40;95086.69;;;10.54;80.14
43934;BME280;59081;42.706;23.306;2024-02-26T23:45:43;94961.19;;;9.61;80.67
43934;BME280;59081;42.706;23.306;2024-02-26T23:50:44;94892.09;;;8.88;79.88
43934;BME280;59081;42.706;23.306;2024-02-26T23:55:47;95093.59;;;10.33;79.19
